Time;durP1;ratioP1;P1;durP2;ratioP2;P2;SDS_P1;SDS_P2;PMS_P1;PMS_P2;Temp;Humidity;BMP_temperature;BMP_pressure;BME280_temperature;BME280_humidity;BME280_pressure;Samples;Min_cycle;Max_cycle;Signal;HPM_P1;HPM_P2
2023/05/08 00:01:42;;;;;;;6.45;3.03;;;;;;;12.13;82.91;100767.97;5092118;28;20043;-83
2023/05/08 00:04:07;;;;;;;7.93;3.25;;;;;;;12.17;83.69;100768.94;5074197;28;20062;-84
2023/05/08 00:06:33;;;;;;;6.40;3.40;;;;;;;12.27;83.35;100790.03;5092527;28;20046;-86
2023/05/08 00:08:58;;;;;;;9.80;3.30;;;;;;;11.75;82.58;100702.75;5092739;28;20035;-87
2023/05/08 00:11:24;;;;;;;8.23;3.22;;;;;;;12.22;82.99;100777.75;5073822;28;20020;-87
2023/05/08 00:13:49;;;;;;;5.78;3.03;;;;;;;11.91;83.07;100720.59;5074147;28;20023;-87
2023/05/08 00:16:15;;;;;;;5.72;2.83;;;;;;;12.31;83.18;100783.25;5092374;28;20542;-85
2023/05/08 00:18:40;;;;;;;5.70;3.10;;;;;;;12.30;82.87;100782.38;5073665;28;20028;-87
2023/05/08 00:21:06;;;;;;;5.82;2.88;;;;;;;12.22;83.17;100770.00;5074079;28;20020;-90
2023/05/08 00:23:32;;;;;;;6.43;3.67;;;;;;;12.13;83.24;100774.00;5073783;28;20020;-84
2023/05/08 00:25:57;;;;;;;5.95;3.10;;;;;;;12.03;83.65;100761.56;5073964;28;20118;-80
2023/05/08 00:28:23;;;;;;;9.82;3.30;;;;;;;12.03;84.41;100773.66;5091858;28;20031;-81
2023/05/08 00:30:49;;;;;;;7.60;3.45;;;;;;;11.92;84.81;100771.50;5091939;28;20576;-81
2023/05/08 00:33:14;;;;;;;7.57;3.45;;;;;;;11.47;85.21;100705.22;5091651;28;20109;-83
2023/05/08 00:35:41;;;;;;;6.63;3.45;;;;;;;11.86;85.33;100788.50;5089400;28;20106;-81
2023/05/08 00:38:08;;;;;;;8.73;3.20;;;;;;;11.57;85.72;100763.31;5063634;28;20458;-82
2023/05/08 00:40:33;;;;;;;13.00;4.15;;;;;;;11.60;85.36;100776.38;5072461;28;20028;-81
2023/05/08 00:42:59;;;;;;;6.78;3.47;;;;;;;11.57;85.57;100771.06;5080963;28;20104;-80
2023/05/08 00:45:31;;;;;;;9.27;3.70;;;;;;;11.64;85.54;100786.00;5087292;28;20024;-80
2023/05/08 00:47:57;;;;;;;6.55;3.10;;;;;;;11.42;84.90;100768.78;5091540;28;20048;-81
2023/05/08 00:50:22;;;;;;;9.15;3.85;;;;;;;11.47;85.31;100764.66;5072911;28;20051;-81
2023/05/08 00:52:49;;;;;;;6.95;3.30;;;;;;;11.52;85.49;100774.31;5091613;28;20091;-81
2023/05/08 00:55:15;;;;;;;11.50;4.40;;;;;;;11.64;85.97;100800.66;5091649;28;20073;-80
2023/05/08 00:57:41;;;;;;;10.35;4.68;;;;;;;11.60;86.08;100766.03;5073221;28;20027;-81
2023/05/08 01:00:08;;;;;;;12.02;4.18;;;;;;;11.77;85.98;100783.88;5091242;28;20056;-77
2023/05/08 01:02:34;;;;;;;11.95;4.20;;;;;;;11.77;85.95;100789.06;5072814;28;20477;-80
2023/05/08 01:05:00;;;;;;;6.82;3.85;;;;;;;11.78;85.70;100764.94;5072963;28;20028;-80
2023/05/08 01:07:26;;;;;;;13.43;4.03;;;;;;;11.74;86.12;100766.53;5072320;28;20420;-80
2023/05/08 01:09:52;;;;;;;7.22;3.90;;;;;;;11.77;86.65;100799.41;5072842;28;20727;-83
2023/05/08 01:12:40;;;;;;;11.93;3.90;;;;;;;11.58;86.26;100767.66;5072926;28;20073;-78
2023/05/08 01:15:15;;;;;;;8.90;3.60;;;;;;;11.63;85.73;100768.72;5090978;28;20024;-80
2023/05/08 01:18:02;;;;;;;10.52;3.70;;;;;;;11.73;86.07;100785.47;5072709;28;20023;-81
2023/05/08 01:20:35;;;;;;;9.02;3.63;;;;;;;11.64;85.31;100792.91;5072944;28;20024;-86
2023/05/08 01:23:15;;;;;;;9.32;3.35;;;;;;;11.60;85.37;100791.00;5072731;28;20028;-81
2023/05/08 01:25:56;;;;;;;9.00;3.65;;;;;;;11.57;85.90;100786.59;5072682;28;20035;-80
2023/05/08 01:28:58;;;;;;;19.13;4.18;;;;;;;11.43;85.21;100774.88;5072573;28;20027;-80
2023/05/08 01:31:46;;;;;;;7.90;3.65;;;;;;;11.51;85.90;100791.53;5058354;28;20020;-80
2023/05/08 01:34:20;;;;;;;9.32;3.95;;;;;;;11.54;85.42;100783.00;5090663;28;20113;-81
2023/05/08 01:37:05;;;;;;;9.38;3.42;;;;;;;11.56;85.63;100802.06;5090109;28;20027;-81
2023/05/08 01:39:44;;;;;;;7.35;3.95;;;;;;;11.13;86.77;100732.38;5090847;28;20023;-83
2023/05/08 01:42:25;;;;;;;7.05;3.63;;;;;;;11.48;86.70;100797.47;5090288;28;20496;-83
2023/05/08 01:44:58;;;;;;;9.60;3.67;;;;;;;11.34;86.87;100798.66;5072145;28;20531;-81
2023/05/08 01:47:28;;;;;;;8.93;3.65;;;;;;;11.17;86.58;100780.75;5067377;28;20037;-80
2023/05/08 01:50:06;;;;;;;7.57;3.42;;;;;;;11.22;87.00;100798.16;5067667;28;20047;-81
2023/05/08 01:52:41;;;;;;;7.60;3.90;;;;;;;11.01;87.68;100773.22;5067677;28;20024;-81
2023/05/08 01:55:30;;;;;;;14.05;4.22;;;;;;;11.04;88.55;100793.13;5067603;28;20020;-82
2023/05/08 01:57:58;;;;;;;9.25;4.03;;;;;;;10.92;89.27;100783.19;4988301;28;20034;-79
2023/05/08 02:00:27;;;;;;;12.50;3.97;;;;;;;10.88;89.31;100797.69;4988477;28;20050;-80
2023/05/08 02:02:54;;;;;;;10.87;4.40;;;;;;;10.91;89.42;100804.69;4988245;28;20038;-81
2023/05/08 02:05:24;;;;;;;8.85;3.78;;;;;;;10.41;89.66;100722.59;4988367;28;20280;-80
2023/05/08 02:07:50;;;;;;;7.13;3.67;;;;;;;10.82;90.45;100802.59;4972102;28;20042;-78
2023/05/08 02:10:17;;;;;;;12.13;4.22;;;;;;;10.63;90.32;100764.78;4988048;28;20041;-80
2023/05/08 02:12:44;;;;;;;8.07;3.65;;;;;;;10.81;89.80;100806.88;4988378;28;20078;-81
2023/05/08 02:15:12;;;;;;;11.45;4.30;;;;;;;10.91;90.36;100809.84;4988361;28;20038;-78
2023/05/08 02:17:40;;;;;;;7.25;4.40;;;;;;;10.86;89.57;100801.03;4988276;28;20041;-79
2023/05/08 02:20:13;;;;;;;10.48;4.45;;;;;;;10.84;89.32;100801.84;4974111;28;20122;-86
2023/05/08 02:22:42;;;;;;;11.75;4.25;;;;;;;10.77;89.82;100804.13;4991914;28;20121;-78
2023/05/08 02:25:10;;;;;;;10.90;4.87;;;;;;;10.76;90.09;100798.06;4992003;28;20026;-86
2023/05/08 02:27:38;;;;;;;10.07;4.40;;;;;;;10.63;90.34;100775.13;4991946;28;20795;-81
2023/05/08 02:30:05;;;;;;;10.10;4.53;;;;;;;10.65;91.06;100789.88;4991957;28;20036;-81
2023/05/08 02:32:31;;;;;;;11.27;4.28;;;;;;;10.59;91.26;100783.56;4992008;28;20070;-81
2023/05/08 02:34:58;;;;;;;9.35;4.20;;;;;;;10.53;91.35;100771.28;5041782;28;20709;-80
2023/05/08 02:37:25;;;;;;;11.60;5.25;;;;;;;10.35;91.29;100722.31;5093713;28;20103;-81
2023/05/08 02:39:55;;;;;;;9.20;3.80;;;;;;;10.68;91.54;100789.13;5093823;28;20019;-81
2023/05/08 02:42:20;;;;;;;;;;;;;;;10.68;91.53;100791.72;5076004;28;20027;-80
2023/05/08 02:44:46;;;;;;;11.88;4.40;;;;;;;10.53;91.85;100776.47;5093423;28;20365;-81
2023/05/08 02:47:21;;;;;;;9.30;4.63;;;;;;;10.57;91.98;100795.53;5093765;28;20028;-81
2023/05/08 02:49:53;;;;;;;10.70;4.68;;;;;;;10.44;92.57;100771.78;5093584;28;20032;-80
2023/05/08 02:52:27;;;;;;;8.68;4.55;;;;;;;10.46;92.08;100774.44;5093947;28;20013;-81
2023/05/08 02:55:12;;;;;;;8.25;4.75;;;;;;;10.58;92.03;100786.94;5075613;28;20690;-81
2023/05/08 02:58:03;;;;;;;12.00;5.15;;;;;;;10.50;92.69;100790.13;5075239;28;20182;-80
2023/05/08 03:00:39;;;;;;;15.45;5.30;;;;;;;10.51;93.28;100791.84;5094031;28;20457;-78
2023/05/08 03:03:18;;;;;;;10.43;5.55;;;;;;;10.40;94.68;100784.50;5075319;28;20024;-81
2023/05/08 03:05:51;;;;;;;10.53;5.20;;;;;;;10.43;95.12;100785.50;5075286;28;20551;-80
2023/05/08 03:08:22;;;;;;;10.65;4.90;;;;;;;9.91;95.44;100701.56;5093365;28;20020;-79
2023/05/08 03:10:51;;;;;;;10.77;6.07;;;;;;;10.16;96.23;100762.81;5070211;28;20129;-80
2023/05/08 03:13:19;;;;;;;9.20;5.60;;;;;;;10.09;97.02;100762.50;5069857;28;20123;-80
2023/05/08 03:15:51;;;;;;;12.32;5.53;;;;;;;10.23;96.45;100784.63;5070091;28;20565;-80
2023/05/08 03:18:20;;;;;;;13.85;6.53;;;;;;;10.26;95.34;100782.16;5053432;28;20030;-80
2023/05/08 03:20:51;;;;;;;11.30;5.07;;;;;;;10.25;94.71;100775.22;5070278;28;20116;-80
2023/05/08 03:23:19;;;;;;;13.02;5.20;;;;;;;10.07;94.83;100761.53;5070110;28;20039;-80
2023/05/08 03:25:45;;;;;;;15.25;5.63;;;;;;;10.09;95.28;100776.25;5053374;28;20055;-80
2023/05/08 03:28:13;;;;;;;8.80;5.53;;;;;;;10.14;95.76;100795.44;5069867;28;20032;-80
2023/05/08 03:30:40;;;;;;;8.35;4.82;;;;;;;10.20;95.89;100806.00;5069303;28;20063;-81
2023/05/08 03:33:07;;;;;;;14.43;5.53;;;;;;;10.09;96.04;100791.72;5069968;28;20428;-81
2023/05/08 03:35:37;;;;;;;6.93;4.43;;;;;;;10.17;95.78;100792.09;5069715;28;20072;-81
2023/05/08 03:38:03;;;;;;;;;;;;;;;10.23;95.72;100804.38;5053645;28;20052;-80
2023/05/08 03:40:28;;;;;;;10.73;5.70;;;;;;;10.16;95.52;100795.50;5070057;28;20005;-81
2023/05/08 03:42:54;;;;;;;12.85;5.43;;;;;;;10.09;96.62;100791.72;5069400;28;20520;-77
2023/05/08 03:45:22;;;;;;;10.50;4.88;;;;;;;10.18;96.22;100804.16;5068354;28;20036;-81
2023/05/08 03:47:48;;;;;;;10.55;5.65;;;;;;;10.08;96.91;100792.56;5069272;28;20032;-78
2023/05/08 03:50:14;;;;;;;9.65;5.90;;;;;;;9.47;96.94;100682.41;5072171;28;20032;-83
2023/05/08 03:52:41;;;;;;;10.00;5.55;;;;;;;10.24;96.50;100804.41;5072745;28;20020;-80
2023/05/08 03:55:06;;;;;;;9.65;5.18;;;;;;;10.03;98.17;100800.09;5072402;28;20028;-82
2023/05/08 03:57:48;;;;;;;11.73;5.72;;;;;;;10.09;98.88;100819.25;5054417;28;20028;-81
2023/05/08 04:00:24;;;;;;;10.23;5.88;;;;;;;10.14;99.42;100826.38;5054271;28;20470;-80
2023/05/08 04:03:03;;;;;;;11.02;6.25;;;;;;;10.25;98.41;100821.69;5052020;28;20122;-82
2023/05/08 04:05:36;;;;;;;12.32;6.88;;;;;;;10.27;99.19;100803.66;5069017;28;20041;-80
2023/05/08 04:08:09;;;;;;;13.25;6.85;;;;;;;10.39;99.60;100822.31;5032431;28;20501;-79
2023/05/08 04:10:45;;;;;;;12.65;6.38;;;;;;;10.41;100.00;100814.66;5032663;28;20028;-81
2023/05/08 04:13:17;;;;;;;12.95;7.00;;;;;;;10.59;99.98;100825.78;5049126;28;20033;-82
2023/05/08 04:15:49;;;;;;;12.20;7.43;;;;;;;10.68;99.73;100827.84;5034384;28;20119;-81
2023/05/08 04:18:17;;;;;;;13.07;6.43;;;;;;;10.80;99.73;100822.31;5049881;28;20423;-76
2023/05/08 04:20:46;;;;;;;11.18;5.95;;;;;;;10.88;98.44;100832.94;5048914;28;20036;-82
2023/05/08 04:23:16;;;;;;;9.20;5.60;;;;;;;10.73;99.28;100815.13;5049125;28;20037;-81
2023/05/08 04:25:43;;;;;;;10.63;6.15;;;;;;;10.69;98.59;100814.09;5048800;28;20073;-80
2023/05/08 04:28:10;;;;;;;14.18;5.82;;;;;;;10.81;98.51;100824.06;5048807;28;20033;-79
2023/05/08 04:30:36;;;;;;;14.75;6.28;;;;;;;10.79;97.65;100810.22;5048827;28;20040;-80
2023/05/08 04:33:03;;;;;;;11.43;6.03;;;;;;;10.96;97.94;100821.25;5035503;28;20032;-80
2023/05/08 04:35:29;;;;;;;12.07;5.85;;;;;;;10.97;97.37;100823.88;5054947;28;20465;-79
2023/05/08 04:37:55;;;;;;;15.00;6.43;;;;;;;10.66;97.21;100767.50;5071715;28;20032;-79
2023/05/08 04:40:20;;;;;;;12.00;5.80;;;;;;;10.99;96.28;100831.69;5091341;28;20485;-79
2023/05/08 04:42:46;;;;;;;14.82;5.50;;;;;;;11.03;97.51;100841.34;5072401;28;20035;-79
2023/05/08 04:45:12;;;;;;;15.25;5.55;;;;;;;11.03;96.05;100825.84;5091384;28;20420;-80
2023/05/08 04:47:37;;;;;;;15.90;5.78;;;;;;;11.21;95.37;100835.16;5091560;28;20496;-80
2023/05/08 04:50:03;;;;;;;20.55;6.30;;;;;;;11.23;94.94;100826.66;5091399;28;20115;-80
2023/05/08 04:52:29;;;;;;;23.10;6.38;;;;;;;11.34;92.40;100827.09;5072757;28;20417;-80
2023/05/08 04:54:54;;;;;;;31.02;6.15;;;;;;;11.47;92.68;100837.06;5091836;28;20035;-80
2023/05/08 05:00:41;;;;;;;17.55;6.60;;;;;;;11.47;93.13;100816.38;5183813;22;20080;-81
2023/05/08 05:03:07;;;;;;;11.52;5.43;;;;;;;11.60;93.24;100827.19;5051148;28;20057;-81
2023/05/08 05:05:34;;;;;;;26.23;6.72;;;;;;;11.72;90.68;100826.81;5051683;28;20047;-80
2023/05/08 05:07:59;;;;;;;19.50;6.55;;;;;;;11.69;90.88;100826.66;5083632;28;20017;-82
2023/05/08 05:10:25;;;;;;;18.00;5.80;;;;;;;11.80;89.60;100826.25;5051055;28;20897;-79
2023/05/08 05:12:50;;;;;;;10.27;5.30;;;;;;;11.80;88.56;100825.38;5051270;28;20028;-80
2023/05/08 05:15:16;;;;;;;16.67;5.68;;;;;;;11.83;91.22;100812.56;5051222;28;20021;-79
2023/05/08 05:17:41;;;;;;;9.32;5.15;;;;;;;11.78;91.41;100824.44;5051041;28;20029;-82
2023/05/08 05:20:07;;;;;;;8.30;5.40;;;;;;;11.65;91.29;100773.94;5051331;28;20025;-82
2023/05/08 05:22:33;;;;;;;9.13;5.28;;;;;;;11.70;89.48;100798.31;5051177;28;20044;-82
2023/05/08 05:24:58;;;;;;;12.20;5.85;;;;;;;11.93;88.85;100803.44;5051010;28;20475;-82
2023/05/08 05:27:24;;;;;;;11.40;4.80;;;;;;;12.22;88.24;100819.16;5049826;28;20025;-82
2023/05/08 05:29:49;;;;;;;9.30;5.70;;;;;;;12.25;88.36;100791.69;5083314;28;20048;-86
2023/05/08 05:32:15;;;;;;;8.98;5.13;;;;;;;12.55;87.16;100808.25;5050835;28;20021;-80
2023/05/08 05:34:40;;;;;;;10.65;5.43;;;;;;;12.54;86.12;100815.13;5051066;28;20393;-81
2023/05/08 05:37:06;;;;;;;9.88;5.20;;;;;;;12.73;85.68;100820.94;5051268;28;20021;-84
2023/05/08 05:39:32;;;;;;;10.73;5.10;;;;;;;12.51;83.78;100745.09;5050931;28;20471;-83
2023/05/08 05:41:58;;;;;;;14.57;5.47;;;;;;;12.98;83.16;100793.25;5064840;28;20140;-81
2023/05/08 05:44:23;;;;;;;11.77;5.30;;;;;;;13.22;83.88;100807.00;5030696;28;20053;-81
2023/05/08 05:46:49;;;;;;;13.00;5.75;;;;;;;13.10;86.37;100804.88;5030653;28;20508;-81
2023/05/08 05:49:14;;;;;;;10.32;5.00;;;;;;;13.01;85.64;100777.78;5030733;28;20070;-81
2023/05/08 05:51:40;;;;;;;13.93;6.50;;;;;;;12.99;85.34;100793.28;5031117;28;20053;-81
2023/05/08 05:54:05;;;;;;;13.45;5.25;;;;;;;13.15;84.55;100786.00;5029393;28;20403;-83
2023/05/08 05:56:30;;;;;;;11.95;5.45;;;;;;;13.20;82.98;100759.38;5030900;28;20030;-82
2023/05/08 05:58:56;;;;;;;13.27;5.97;;;;;;;13.58;83.95;100789.94;5030644;28;20025;-81
2023/05/08 06:01:23;;;;;;;8.70;5.18;;;;;;;13.55;84.61;100789.84;5028207;28;20365;-81
2023/05/08 06:03:50;;;;;;;13.13;5.45;;;;;;;13.63;85.09;100792.66;5019265;28;20475;-80
2023/05/08 06:06:16;;;;;;;10.32;5.22;;;;;;;13.55;85.28;100782.06;5013831;28;20365;-81
2023/05/08 06:08:41;;;;;;;9.25;4.78;;;;;;;13.61;81.91;100794.31;5009321;28;20030;-80
2023/05/08 06:11:07;;;;;;;15.13;5.55;;;;;;;13.25;81.25;100731.00;5010747;28;20093;-81
2023/05/08 06:13:32;;;;;;;11.25;4.80;;;;;;;13.47;79.77;100773.16;5010776;28;20026;-81
2023/05/08 06:15:58;;;;;;;12.68;4.85;;;;;;;13.39;78.16;100775.53;4992906;28;20022;-83
2023/05/08 06:18:23;;;;;;;11.85;5.47;;;;;;;13.54;79.44;100772.53;5009468;28;20388;-82
2023/05/08 06:20:55;;;;;;;9.57;4.28;;;;;;;13.48;77.39;100774.94;5010483;28;20026;-82
2023/05/08 06:23:20;;;;;;;16.33;4.40;;;;;;;13.45;72.62;100759.31;5010621;28;20093;-81
2023/05/08 06:25:46;;;;;;;9.93;3.67;;;;;;;13.67;75.35;100774.66;5030350;28;20029;-82
2023/05/08 06:28:11;;;;;;;8.13;4.25;;;;;;;13.99;75.64;100779.00;5012585;28;20044;-82
2023/05/08 06:30:37;;;;;;;8.15;4.00;;;;;;;13.89;78.02;100738.94;5010420;28;20453;-82
2023/05/08 06:33:02;;;;;;;9.88;3.67;;;;;;;14.17;74.80;100752.69;5030003;28;20468;-83
2023/05/08 06:35:28;;;;;;;7.15;3.50;;;;;;;14.42;74.64;100771.47;5029298;28;20523;-81
2023/05/08 06:37:53;;;;;;;10.38;4.07;;;;;;;14.47;72.72;100778.56;5029392;28;20022;-81
2023/05/08 06:40:19;;;;;;;10.32;4.30;;;;;;;14.51;73.99;100771.72;5011593;28;20506;-81
2023/05/08 06:42:45;;;;;;;12.95;4.22;;;;;;;14.52;70.64;100770.91;5029412;28;20036;-81
2023/05/08 06:45:10;;;;;;;11.57;3.88;;;;;;;14.55;70.04;100771.84;5010986;28;20033;-80
2023/05/08 06:47:37;;;;;;;10.63;3.85;;;;;;;14.32;68.47;100716.72;5029972;28;20029;-80
2023/05/08 06:50:03;;;;;;;8.52;3.20;;;;;;;14.77;71.48;100768.94;5029301;28;20029;-79
2023/05/08 06:52:28;;;;;;;9.50;3.45;;;;;;;14.84;69.34;100771.72;5029462;28;20025;-80
2023/05/08 06:54:54;;;;;;;7.88;3.58;;;;;;;14.99;68.65;100773.81;5026321;28;20025;-79
2023/05/08 06:57:19;;;;;;;10.10;3.35;;;;;;;15.01;67.85;100761.72;5029432;28;20028;-81
2023/05/08 06:59:45;;;;;;;7.60;3.35;;;;;;;15.43;68.43;100769.59;4986674;28;20062;-79
2023/05/08 07:02:11;;;;;;;8.20;3.40;;;;;;;15.39;64.20;100702.72;4954226;28;20065;-80
2023/05/08 07:04:36;;;;;;;10.55;3.53;;;;;;;15.87;63.34;100743.63;4968504;28;20041;-81
2023/05/08 07:07:02;;;;;;;8.35;2.90;;;;;;;16.18;60.11;100762.44;4972102;28;20587;-80
2023/05/08 07:09:27;;;;;;;12.13;3.45;;;;;;;16.24;56.59;100764.31;4971474;28;20053;-79
2023/05/08 07:11:53;;;;;;;13.85;3.60;;;;;;;16.21;58.07;100738.19;4971638;28;20052;-79
2023/05/08 07:14:18;;;;;;;7.75;2.97;;;;;;;16.24;59.99;100753.88;4987279;28;20035;-80
2023/05/08 07:16:44;;;;;;;12.63;3.55;;;;;;;16.38;59.67;100757.59;4970510;28;20568;-78
2023/05/08 07:19:10;;;;;;;8.48;3.20;;;;;;;16.36;60.57;100734.97;4968661;28;20039;-79
2023/05/08 07:21:35;;;;;;;11.00;3.30;;;;;;;16.63;60.18;100750.22;4969105;28;20031;-79
2023/05/08 07:24:01;;;;;;;9.40;2.80;;;;;;;16.66;57.76;100735.50;4949743;28;20082;-79
2023/05/08 07:26:28;;;;;;;8.57;3.13;;;;;;;16.90;57.71;100744.56;4951288;28;20039;-78
2023/05/08 07:28:53;;;;;;;7.93;3.35;;;;;;;16.88;57.74;100725.38;4951991;28;20043;-80
2023/05/08 07:31:19;;;;;;;8.00;2.40;;;;;;;17.02;54.59;100737.81;4966376;28;20046;-78
2023/05/08 07:33:45;;;;;;;5.95;2.40;;;;;;;16.63;54.30;100661.56;4971231;28;20082;-78
2023/05/08 07:36:11;;;;;;;5.20;2.80;;;;;;;17.05;51.85;100740.47;4971659;28;20497;-83
2023/05/08 07:38:37;;;;;;;9.45;2.70;;;;;;;16.82;54.13;100684.47;4971521;28;20041;-77
2023/05/08 07:41:04;;;;;;;7.70;2.83;;;;;;;17.01;55.09;100744.75;4971292;28;20389;-77
2023/05/08 07:43:29;;;;;;;4.65;2.17;;;;;;;17.17;52.63;100742.38;4970950;28;20579;-77
2023/05/08 07:45:55;;;;;;;5.55;1.80;;;;;;;17.17;52.03;100722.38;4971324;28;20103;-79
2023/05/08 07:48:20;;;;;;;4.72;2.40;;;;;;;17.23;51.91;100722.44;4971221;28;20031;-81
2023/05/08 07:50:49;;;;;;;6.18;2.10;;;;;;;17.34;50.56;100730.44;4971077;28;20038;-77
2023/05/08 07:53:15;;;;;;;5.47;2.30;;;;;;;16.80;51.17;100638.38;4939063;28;20201;-78
2023/05/08 07:55:41;;;;;;;8.07;2.88;;;;;;;17.25;52.50;100714.66;5002764;28;20477;-79
2023/05/08 07:58:06;;;;;;;3.65;2.13;;;;;;;17.23;53.69;100675.47;5012010;28;20036;-82
2023/05/08 08:00:33;;;;;;;5.75;2.60;;;;;;;17.57;53.06;100702.00;5005890;28;20056;-77
2023/05/08 08:02:58;;;;;;;5.25;2.20;;;;;;;17.77;54.13;100715.28;5031998;28;20025;-77
2023/05/08 08:05:24;;;;;;;6.38;2.30;;;;;;;17.81;55.48;100700.53;5032144;28;20025;-77
2023/05/08 08:07:49;;;;;;;6.72;2.42;;;;;;;17.79;56.13;100697.03;5031972;28;20487;-77
2023/05/08 08:10:15;;;;;;;3.33;2.05;;;;;;;17.74;54.36;100701.31;5032014;28;20034;-77
2023/05/08 08:12:40;;;;;;;3.35;1.95;;;;;;;17.70;55.07;100676.91;4996725;28;20065;-77
2023/05/08 08:15:06;;;;;;;3.70;2.05;;;;;;;18.08;56.21;100692.16;5032403;28;20038;-81
2023/05/08 08:17:32;;;;;;;7.80;2.40;;;;;;;18.03;55.55;100692.94;5032076;28;20056;-77
2023/05/08 08:19:58;;;;;;;4.45;2.30;;;;;;;18.02;55.19;100673.81;5031886;28;20501;-79
2023/05/08 08:22:24;;;;;;;4.95;2.30;;;;;;;17.99;54.72;100658.09;5013874;28;20068;-78
2023/05/08 08:24:50;;;;;;;5.93;2.40;;;;;;;18.21;52.17;100689.66;5031634;28;20028;-79
2023/05/08 08:27:36;;;;;;;8.27;2.30;;;;;;;18.43;52.86;100683.75;4970415;28;20504;-78
2023/05/08 08:30:02;;;;;;;5.45;2.50;;;;;;;18.23;56.29;100641.75;4970456;28;20039;-77
2023/05/08 08:32:28;;;;;;;9.70;2.20;;;;;;;18.66;57.56;100682.16;4954204;28;20596;-77
2023/05/08 08:34:55;;;;;;;4.50;2.60;;;;;;;18.69;55.85;100692.63;4970434;28;20035;-78
2023/05/08 08:37:21;;;;;;;4.57;2.40;;;;;;;18.83;56.56;100679.63;4970432;28;20445;-78
2023/05/08 08:39:47;;;;;;;8.15;2.50;;;;;;;18.98;55.73;100678.88;4953792;28;20034;-78
2023/05/08 08:42:13;;;;;;;5.85;2.40;;;;;;;19.00;54.79;100679.78;4970357;28;20050;-78
2023/05/08 08:44:39;;;;;;;4.20;2.10;;;;;;;19.10;53.22;100675.47;4970235;28;20035;-77
2023/05/08 08:47:05;;;;;;;5.00;2.30;;;;;;;19.21;54.41;100682.50;4953888;28;20039;-79
2023/05/08 08:49:34;;;;;;;3.83;2.25;;;;;;;19.33;53.70;100663.38;4969966;28;20133;-78
2023/05/08 08:52:32;;;;;;;4.07;2.22;;;;;;;19.52;53.43;100652.97;4954214;28;20086;-77
2023/05/08 08:55:01;;;;;;;3.95;2.33;;;;;;;19.26;53.70;100590.06;4893631;29;20079;-78
2023/05/08 08:57:32;;;;;;;4.65;2.75;;;;;;;19.78;54.00;100641.69;4894670;29;20044;-79
2023/05/08 09:00:02;;;;;;;5.57;2.72;;;;;;;20.00;51.78;100643.50;4931303;29;20518;-77
2023/05/08 09:02:30;;;;;;;6.85;2.10;;;;;;;19.97;51.96;100643.47;4915460;29;20023;-79
2023/05/08 09:04:56;;;;;;;6.05;2.47;;;;;;;19.94;52.66;100642.59;4931593;29;20038;-78
2023/05/08 09:07:23;;;;;;;7.93;2.58;;;;;;;19.98;52.64;100631.25;4931123;29;20039;-79
2023/05/08 09:09:49;;;;;;;6.25;2.00;;;;;;;20.20;51.20;100632.16;4931513;29;20119;-77
2023/05/08 09:12:16;;;;;;;3.25;2.08;;;;;;;20.14;49.36;100619.91;4915353;29;20032;-77
2023/05/08 09:14:41;;;;;;;3.75;1.85;;;;;;;20.24;49.16;100633.00;4931268;29;20591;-77
2023/05/08 09:17:08;;;;;;;4.68;2.22;;;;;;;20.29;51.25;100602.44;4931103;29;20098;-78
2023/05/08 09:19:35;;;;;;;6.63;2.30;;;;;;;20.46;52.06;100618.13;4931019;29;20130;-78
2023/05/08 09:22:03;;;;;;;4.05;2.03;;;;;;;20.73;50.21;100617.22;4931248;29;20607;-76
2023/05/08 09:24:54;;;;;;;3.45;1.85;;;;;;;20.89;47.70;100627.69;4898845;29;20126;-77
2023/05/08 09:27:21;;;;;;;5.55;2.30;;;;;;;20.33;47.77;100504.53;4941975;28;20057;-77
2023/05/08 09:30:13;;;;;;;4.18;2.28;;;;;;;21.01;48.43;100625.88;4948935;29;20131;-77
2023/05/08 09:32:43;;;;;;;6.05;2.25;;;;;;;21.05;49.70;100624.13;4956714;28;20057;-77
2023/05/08 09:35:10;;;;;;;4.63;2.22;;;;;;;21.13;49.65;100622.38;4969542;28;20350;-77
2023/05/08 09:37:55;;;;;;;3.80;2.05;;;;;;;21.29;48.13;100623.13;4930579;29;20497;-77
2023/05/08 09:40:21;;;;;;;4.00;2.35;;;;;;;21.42;47.62;100617.81;4930855;29;20044;-78
2023/05/08 09:43:07;;;;;;;5.35;2.30;;;;;;;21.58;48.39;100609.03;4931041;29;20043;-78
2023/05/08 09:45:34;;;;;;;4.05;2.58;;;;;;;21.64;47.39;100614.22;4896181;29;20031;-79
2023/05/08 09:47:59;;;;;;;7.22;2.95;;;;;;;21.40;48.10;100564.47;4912073;29;20043;-77
2023/05/08 09:50:26;;;;;;;3.47;2.25;;;;;;;21.28;49.39;100536.50;4911843;29;20036;-77
2023/05/08 09:52:52;;;;;;;5.00;2.10;;;;;;;21.43;49.53;100604.72;4911943;29;20054;-79
2023/05/08 09:55:19;;;;;;;5.00;2.28;;;;;;;21.61;50.37;100603.75;4911819;29;20475;-79
2023/05/08 09:57:58;;;;;;;4.55;2.75;;;;;;;21.92;50.14;100592.13;4911824;29;20036;-78
2023/05/08 10:00:27;;;;;;;5.05;2.60;;;;;;;22.04;49.50;100583.28;4911948;29;20503;-80
2023/05/08 10:02:54;;;;;;;7.97;2.63;;;;;;;22.19;48.97;100592.78;4912108;29;20032;-78
2023/05/08 10:05:30;;;;;;;4.80;2.42;;;;;;;22.25;49.13;100584.84;4911081;29;20033;-77
2023/05/08 10:07:57;;;;;;;3.38;2.00;;;;;;;22.44;48.48;100565.41;4911919;29;20538;-78
2023/05/08 10:10:29;;;;;;;7.72;2.67;;;;;;;22.21;46.88;100506.88;4958381;28;20043;-81
2023/05/08 10:12:56;;;;;;;5.13;2.53;;;;;;;22.46;46.87;100575.91;4951175;28;20159;-77
2023/05/08 10:15:28;;;;;;;6.47;2.47;;;;;;;22.39;47.13;100567.22;4988646;28;20077;-77
2023/05/08 10:18:04;;;;;;;5.13;2.40;;;;;;;22.12;47.40;100544.66;5008402;28;20113;-78
2023/05/08 10:20:31;;;;;;;3.78;2.10;;;;;;;21.83;48.23;100510.72;5008511;28;20030;-79
2023/05/08 10:22:57;;;;;;;5.75;2.35;;;;;;;22.44;47.46;100559.25;5001941;28;20458;-78
2023/05/08 10:25:24;;;;;;;5.13;2.00;;;;;;;22.62;46.46;100545.88;5030148;28;20030;-80
2023/05/08 10:28:09;;;;;;;6.97;2.53;;;;;;;22.85;46.19;100562.28;5030484;28;20025;-79
2023/05/08 10:30:44;;;;;;;4.63;2.42;;;;;;;23.00;45.70;100540.16;5030124;28;20032;-78
2023/05/08 10:33:10;;;;;;;5.13;2.42;;;;;;;23.36;45.05;100556.38;5030166;28;20033;-77
2023/05/08 10:35:38;;;;;;;6.68;2.55;;;;;;;23.38;44.42;100541.44;5030028;28;20036;-77
2023/05/08 10:38:08;;;;;;;7.18;2.40;;;;;;;23.48;44.88;100544.78;5030156;28;20033;-78
2023/05/08 10:40:35;;;;;;;4.50;2.38;;;;;;;23.50;44.18;100546.50;5031157;28;20119;-77
2023/05/08 10:43:02;;;;;;;4.72;2.28;;;;;;;23.61;44.17;100543.69;5034136;28;20022;-77
2023/05/08 10:45:29;;;;;;;3.58;2.17;;;;;;;23.79;44.27;100537.25;5033785;28;20475;-78
2023/05/08 10:48:07;;;;;;;3.83;2.42;;;;;;;23.75;44.36;100530.28;5033689;28;20022;-77
2023/05/08 10:50:55;;;;;;;3.78;2.10;;;;;;;24.02;43.60;100525.47;5033418;28;20434;-77
2023/05/08 10:53:41;;;;;;;5.50;2.63;;;;;;;24.04;44.11;100521.06;5033479;28;20072;-80
2023/05/08 10:56:07;;;;;;;5.90;2.60;;;;;;;23.95;44.37;100508.00;5033725;28;20032;-77
2023/05/08 10:58:34;;;;;;;6.85;2.20;;;;;;;23.97;45.47;100509.72;4998286;28;20037;-78
2023/05/08 11:01:02;;;;;;;4.28;2.20;;;;;;;24.05;44.96;100514.84;5015541;28;20055;-79
2023/05/08 11:03:31;;;;;;;3.60;2.30;;;;;;;24.04;45.52;100506.09;5033069;28;20025;-79
2023/05/08 11:06:17;;;;;;;3.40;2.35;;;;;;;23.93;44.93;100513.31;5032442;28;20472;-77
2023/05/08 11:08:49;;;;;;;4.72;2.45;;;;;;;24.00;44.47;100514.97;4991624;28;20472;-77
2023/05/08 11:11:26;;;;;;;4.10;2.50;;;;;;;24.13;44.95;100505.03;4959119;28;20045;-77
2023/05/08 11:13:58;;;;;;;7.90;2.35;;;;;;;24.26;43.46;100500.41;4975106;28;20042;-77
2023/05/08 11:17:04;;;;;;;5.53;2.35;;;;;;;24.20;44.86;100501.41;4991643;28;20477;-77
2023/05/08 11:19:29;;;;;;;4.10;2.40;;;;;;;24.29;44.75;100484.53;4991545;28;20445;-78
2023/05/08 11:22:12;;;;;;;6.22;2.50;;;;;;;23.93;44.21;100383.28;4991825;28;20168;-78
2023/05/08 11:24:39;;;;;;;5.90;2.55;;;;;;;24.56;44.80;100487.47;4991310;28;20088;-80
2023/05/08 11:27:05;;;;;;;4.05;2.30;;;;;;;24.46;44.16;100470.09;4991354;28;20069;-78
2023/05/08 11:29:31;;;;;;;4.28;2.17;;;;;;;24.23;45.72;100488.13;4991312;28;20062;-77
2023/05/08 11:31:56;;;;;;;4.40;1.83;;;;;;;24.35;44.43;100484.41;4990988;28;20077;-78
2023/05/08 11:34:40;;;;;;;4.30;2.08;;;;;;;24.15;45.01;100492.72;4990406;28;20117;-80